Time;durP1;ratioP1;P1;durP2;ratioP2;P2;SDS_P1;SDS_P2;PMS_P1;PMS_P2;Temp;Humidity;BMP_temperature;BMP_pressure;BME280_temperature;BME280_humidity;BME280_pressure;Samples;Min_cycle;Max_cycle;Signal;HPM_P1;HPM_P2
2021/08/28 00:00:21;;;;;;;5.90;4.40;;;14.50;99.90;;;;;;5081980;28;20442;-64
2021/08/28 00:02:49;;;;;;;7.10;4.77;;;14.50;99.90;;;;;;5087725;28;20468;-66
2021/08/28 00:05:16;;;;;;;7.47;4.77;;;14.50;99.90;;;;;;5087751;28;20521;-65
2021/08/28 00:07:43;;;;;;;7.03;5.27;;;14.50;99.90;;;;;;5085247;28;20992;-65
2021/08/28 00:10:11;;;;;;;6.20;5.10;;;14.50;99.90;;;;;;5048559;28;20518;-64
2021/08/28 00:12:38;;;;;;;6.00;5.03;;;14.50;99.90;;;;;;5049224;28;20559;-63
2021/08/28 00:15:08;;;;;;;7.00;5.37;;;14.50;99.90;;;;;;5049768;28;20531;-63
2021/08/28 00:17:36;;;;;;;6.93;5.30;;;14.50;99.90;;;;;;5049741;28;20440;-63
2021/08/28 00:20:06;;;;;;;7.87;4.73;;;14.40;99.90;;;;;;5048874;28;20444;-64
2021/08/28 00:22:33;;;;;;;6.07;4.50;;;14.40;99.90;;;;;;5049554;28;20563;-63
2021/08/28 00:25:00;;;;;;;6.83;4.90;;;14.50;99.90;;;;;;5049306;28;20471;-64
2021/08/28 00:27:27;;;;;;;5.30;4.53;;;14.50;99.90;;;;;;5049314;28;20562;-63
2021/08/28 00:29:54;;;;;;;9.67;4.97;;;14.50;99.90;;;;;;5048889;28;20531;-64
2021/08/28 00:32:20;;;;;;;7.87;5.30;;;14.50;99.90;;;;;;5049654;28;20940;-64
2021/08/28 00:34:47;;;;;;;6.87;4.57;;;14.40;99.90;;;;;;5049744;28;20527;-64
2021/08/28 00:37:15;;;;;;;8.00;5.27;;;14.40;99.90;;;;;;5049563;28;20448;-63
2021/08/28 00:39:42;;;;;;;6.70;4.80;;;14.40;99.90;;;;;;5048570;28;20527;-64
2021/08/28 00:42:09;;;;;;;5.13;4.37;;;14.30;99.90;;;;;;5049535;28;20559;-64
2021/08/28 00:44:39;;;;;;;7.03;4.60;;;14.30;99.90;;;;;;5049179;28;20444;-64
2021/08/28 00:47:06;;;;;;;7.57;4.43;;;14.40;99.90;;;;;;5049759;28;20483;-64
2021/08/28 00:49:33;;;;;;;7.40;5.10;;;14.30;99.90;;;;;;5048605;28;20440;-64
2021/08/28 00:52:02;;;;;;;5.97;3.43;;;14.40;99.90;;;;;;5049371;28;20468;-64
2021/08/28 00:54:31;;;;;;;4.90;3.60;;;14.40;99.90;;;;;;5048860;28;20452;-64
2021/08/28 00:56:59;;;;;;;5.77;4.40;;;14.40;99.90;;;;;;5049706;28;20514;-64
2021/08/28 00:59:26;;;;;;;9.20;4.50;;;14.40;99.90;;;;;;5048570;28;20495;-64
2021/08/28 01:01:53;;;;;;;5.63;4.23;;;14.40;99.90;;;;;;5050296;28;20496;-64
2021/08/28 01:04:21;;;;;;;5.07;3.90;;;14.40;99.90;;;;;;5052935;28;20448;-64
2021/08/28 01:06:56;;;;;;;7.23;4.00;;;14.40;99.90;;;;;;5053129;28;20853;-64
2021/08/28 01:09:29;;;;;;;5.20;4.00;;;14.40;99.90;;;;;;5052443;28;20451;-64
2021/08/28 01:12:05;;;;;;;4.63;3.90;;;14.50;99.90;;;;;;5052780;28;20495;-64
2021/08/28 01:14:34;;;;;;;5.23;3.77;;;14.40;99.90;;;;;;5052882;28;20432;-64
2021/08/28 01:17:03;;;;;;;8.83;5.37;;;14.40;99.90;;;;;;5052831;28;20440;-64
2021/08/28 01:19:41;;;;;;;5.67;3.70;;;14.40;99.90;;;;;;5052038;28;20537;-64
2021/08/28 01:22:12;;;;;;;6.50;4.80;;;14.40;99.90;;;;;;5052480;28;20542;-65
2021/08/28 01:24:42;;;;;;;5.37;3.90;;;14.40;99.90;;;;;;5052511;28;20490;-64
2021/08/28 01:27:24;;;;;;;7.13;4.93;;;14.40;99.90;;;;;;5052773;28;20493;-65
2021/08/28 01:29:53;;;;;;;7.10;4.90;;;14.50;99.90;;;;;;5051933;28;20542;-65
2021/08/28 01:32:22;;;;;;;5.87;4.80;;;14.50;99.90;;;;;;5053042;28;20551;-64
2021/08/28 01:34:49;;;;;;;5.50;3.97;;;14.40;99.90;;;;;;5052356;28;20451;-65
2021/08/28 01:37:18;;;;;;;6.33;4.07;;;14.40;99.90;;;;;;5053156;28;20435;-63
2021/08/28 01:39:46;;;;;;;4.83;4.07;;;14.50;99.90;;;;;;5051550;28;21001;-63
2021/08/28 01:42:14;;;;;;;4.60;3.43;;;14.40;99.90;;;;;;5052348;28;20547;-64
2021/08/28 01:44:45;;;;;;;8.60;4.73;;;14.40;99.90;;;;;;5052532;28;20542;-64
2021/08/28 01:47:15;;;;;;;5.63;4.60;;;14.40;99.90;;;;;;5060144;28;20476;-64
2021/08/28 01:49:44;;;;;;;6.17;4.73;;;14.40;99.90;;;;;;5059283;28;20458;-64
2021/08/28 01:52:12;;;;;;;6.40;4.90;;;14.40;99.90;;;;;;5059626;28;20495;-64
2021/08/28 01:54:39;;;;;;;6.70;5.10;;;14.40;99.90;;;;;;5059598;28;20543;-64
2021/08/28 01:57:06;;;;;;;5.30;4.80;;;14.40;99.90;;;;;;5059564;28;20489;-64
2021/08/28 01:59:33;;;;;;;5.00;4.50;;;14.40;99.90;;;;;;5051234;28;20460;-64
2021/08/28 02:02:00;;;;;;;6.90;5.30;;;14.40;99.90;;;;;;5052030;28;20462;-63
2021/08/28 02:04:28;;;;;;;6.27;5.60;;;14.40;99.90;;;;;;5051533;28;20535;-64
2021/08/28 02:07:01;;;;;;;7.07;5.20;;;14.40;99.90;;;;;;5051383;28;20552;-64
2021/08/28 02:09:37;;;;;;;9.97;7.13;;;14.30;99.90;;;;;;5050894;28;20452;-64
2021/08/28 02:12:12;;;;;;;8.90;7.20;;;14.30;99.90;;;;;;5049883;28;20901;-64
2021/08/28 02:14:46;;;;;;;10.17;5.90;;;14.30;99.90;;;;;;5051722;28;20450;-64
2021/08/28 02:17:14;;;;;;;9.73;6.03;;;14.30;99.90;;;;;;5051699;28;20815;-64
2021/08/28 02:19:44;;;;;;;7.97;6.23;;;14.30;99.90;;;;;;5051053;28;20452;-64
2021/08/28 02:22:15;;;;;;;7.53;6.20;;;14.40;99.90;;;;;;5051820;28;20491;-64
2021/08/28 02:24:45;;;;;;;9.53;7.43;;;14.30;99.90;;;;;;5050828;28;20539;-64
2021/08/28 02:27:18;;;;;;;7.70;6.90;;;14.30;99.90;;;;;;5051786;28;20568;-64
2021/08/28 02:29:51;;;;;;;10.30;7.63;;;14.30;99.90;;;;;;5050548;28;20443;-64
2021/08/28 02:32:18;;;;;;;9.53;7.80;;;14.30;99.90;;;;;;5051294;28;20547;-64
2021/08/28 02:34:48;;;;;;;11.77;7.37;;;14.30;99.90;;;;;;5050729;28;20503;-64
2021/08/28 02:37:17;;;;;;;10.13;8.00;;;14.30;99.90;;;;;;5051603;28;20519;-64
2021/08/28 02:39:45;;;;;;;8.70;7.80;;;14.30;99.90;;;;;;5050160;28;20539;-64
2021/08/28 02:42:13;;;;;;;11.00;8.67;;;14.20;99.90;;;;;;5051061;28;20498;-64
2021/08/28 02:44:43;;;;;;;10.13;8.57;;;14.20;99.90;;;;;;5050680;28;20539;-64
2021/08/28 02:47:12;;;;;;;9.50;8.10;;;14.20;99.90;;;;;;5051210;28;20518;-64
2021/08/28 02:49:41;;;;;;;8.93;7.53;;;14.20;99.90;;;;;;5050381;28;20488;-64
2021/08/28 02:52:12;;;;;;;9.40;8.40;;;14.20;99.90;;;;;;5051141;28;20471;-64
2021/08/28 02:54:41;;;;;;;9.90;8.60;;;14.20;99.90;;;;;;5050895;28;20555;-64
2021/08/28 02:57:08;;;;;;;9.73;8.73;;;14.20;99.90;;;;;;5050623;28;20506;-64
2021/08/28 02:59:36;;;;;;;15.13;9.17;;;14.10;99.90;;;;;;5049953;28;20543;-64
2021/08/28 03:02:04;;;;;;;11.70;10.33;;;14.20;99.90;;;;;;5050655;28;20927;-64
2021/08/28 03:04:32;;;;;;;14.00;10.80;;;14.10;99.90;;;;;;5050519;28;21032;-64
2021/08/28 03:06:59;;;;;;;12.23;9.33;;;14.10;99.90;;;;;;5050857;28;20527;-64
2021/08/28 03:09:28;;;;;;;10.67;9.57;;;14.10;99.90;;;;;;5049743;28;20479;-63
2021/08/28 03:11:58;;;;;;;13.83;10.63;;;14.10;99.90;;;;;;5050514;28;20551;-64
2021/08/28 03:14:25;;;;;;;14.47;10.03;;;14.10;99.90;;;;;;5050437;28;20460;-64
2021/08/28 03:16:54;;;;;;;14.37;11.23;;;14.10;99.90;;;;;;5051091;28;20518;-64
2021/08/28 03:19:24;;;;;;;13.20;10.70;;;14.10;99.90;;;;;;5049817;28;20472;-64
2021/08/28 03:21:52;;;;;;;14.30;10.80;;;14.10;99.90;;;;;;5050482;28;20554;-64
2021/08/28 03:24:23;;;;;;;13.30;10.90;;;14.10;99.90;;;;;;5049580;28;20450;-64
2021/08/28 03:26:53;;;;;;;13.90;10.70;;;14.00;99.90;;;;;;5050476;28;20472;-64
2021/08/28 03:29:22;;;;;;;14.80;11.40;;;14.10;99.90;;;;;;5049864;28;20432;-63
2021/08/28 03:31:51;;;;;;;15.73;11.67;;;14.10;99.90;;;;;;5050941;28;20464;-63
2021/08/28 03:34:18;;;;;;;17.37;12.23;;;14.10;99.90;;;;;;5050322;28;21044;-64
2021/08/28 03:36:45;;;;;;;14.70;11.80;;;14.10;99.90;;;;;;5050652;28;20447;-64
2021/08/28 03:39:12;;;;;;;16.53;12.37;;;14.10;99.90;;;;;;5050062;28;20541;-64
2021/08/28 03:41:40;;;;;;;13.83;11.87;;;14.00;99.90;;;;;;5050549;28;21023;-64
2021/08/28 03:44:14;;;;;;;16.70;13.03;;;14.00;99.90;;;;;;5050359;28;20552;-64
2021/08/28 03:46:42;;;;;;;14.23;12.73;;;14.00;99.90;;;;;;5049740;28;20488;-65
2021/08/28 03:49:09;;;;;;;16.20;13.90;;;14.00;99.90;;;;;;5049189;28;21121;-64
2021/08/28 03:51:36;;;;;;;15.23;12.50;;;14.00;99.90;;;;;;5049932;28;20472;-64
2021/08/28 03:54:03;;;;;;;14.80;13.00;;;14.00;99.90;;;;;;5049882;28;20486;-64
2021/08/28 03:56:30;;;;;;;14.80;13.23;;;14.00;99.90;;;;;;5049291;28;20883;-64
2021/08/28 03:58:56;;;;;;;15.67;13.33;;;14.00;99.90;;;;;;5049124;28;21025;-63
2021/08/28 04:01:25;;;;;;;17.20;14.93;;;14.00;99.90;;;;;;5049411;28;20449;-65
2021/08/28 04:03:53;;;;;;;19.57;14.20;;;14.00;99.90;;;;;;5049429;28;20547;-64
2021/08/28 04:06:20;;;;;;;16.90;14.30;;;14.00;99.90;;;;;;5049568;28;20451;-64
2021/08/28 04:08:48;;;;;;;17.90;14.40;;;14.00;99.90;;;;;;5049691;28;20440;-64
2021/08/28 04:11:15;;;;;;;19.83;14.47;;;14.00;99.90;;;;;;5049220;28;20447;-63
2021/08/28 04:13:42;;;;;;;15.40;13.80;;;14.00;99.90;;;;;;5049689;28;20523;-64
2021/08/28 04:16:10;;;;;;;16.50;13.83;;;14.00;99.90;;;;;;5049112;28;20526;-64
2021/08/28 04:18:38;;;;;;;19.17;15.90;;;14.00;99.90;;;;;;5049795;28;20470;-64
2021/08/28 04:21:05;;;;;;;18.60;15.40;;;14.00;99.90;;;;;;5048814;28;20440;-64
2021/08/28 04:23:32;;;;;;;18.00;15.67;;;13.90;99.90;;;;;;5049865;28;21090;-64
2021/08/28 04:25:59;;;;;;;20.73;16.70;;;13.90;99.90;;;;;;5049109;28;20548;-64
2021/08/28 04:28:26;;;;;;;17.00;14.73;;;13.90;99.90;;;;;;5049436;28;20475;-64
2021/08/28 04:30:53;;;;;;;18.07;15.80;;;13.90;99.90;;;;;;5048783;28;20456;-64
2021/08/28 04:33:20;;;;;;;18.93;15.10;;;13.90;99.90;;;;;;5049922;28;20555;-64
2021/08/28 04:35:48;;;;;;;22.77;16.43;;;13.80;99.90;;;;;;5049935;28;20564;-63
2021/08/28 04:38:15;;;;;;;21.00;16.80;;;13.80;99.90;;;;;;5053801;28;20454;-65
2021/08/28 04:40:42;;;;;;;19.80;16.10;;;13.80;99.90;;;;;;5052695;28;20530;-64
2021/08/28 04:43:08;;;;;;;20.17;15.87;;;13.70;99.90;;;;;;5053217;28;20900;-64
2021/08/28 04:45:35;;;;;;;20.33;16.30;;;13.70;99.90;;;;;;5052770;28;20498;-64
2021/08/28 04:48:02;;;;;;;23.83;17.63;;;13.70;99.90;;;;;;5053052;28;20476;-63
2021/08/28 04:50:29;;;;;;;20.77;16.70;;;13.60;99.90;;;;;;5052606;28;20457;-64
2021/08/28 04:52:58;;;;;;;24.80;17.70;;;13.70;99.90;;;;;;5053115;28;20911;-64
2021/08/28 04:55:24;;;;;;;22.47;17.13;;;13.70;99.90;;;;;;5052994;28;20483;-64
2021/08/28 04:57:51;;;;;;;24.20;18.13;;;13.70;99.90;;;;;;5052932;28;20534;-64
2021/08/28 05:00:19;;;;;;;24.43;16.97;;;13.60;99.90;;;;;;5052729;28;20480;-64
2021/08/28 05:02:46;;;;;;;22.47;17.97;;;13.60;99.90;;;;;;5053397;28;20606;-64
2021/08/28 05:05:13;;;;;;;21.87;17.87;;;13.60;99.90;;;;;;5052982;28;20479;-63
2021/08/28 05:07:40;;;;;;;23.83;17.33;;;13.60;99.90;;;;;;5053501;28;21100;-64
2021/08/28 05:10:09;;;;;;;23.10;18.20;;;13.60;99.90;;;;;;5052219;28;20444;-64
2021/08/28 05:12:36;;;;;;;22.47;16.23;;;13.60;99.90;;;;;;5053422;28;20519;-64
2021/08/28 05:15:03;;;;;;;23.07;18.40;;;13.70;99.90;;;;;;5052401;28;20444;-63
2021/08/28 05:17:30;;;;;;;21.83;17.83;;;13.60;99.90;;;;;;5053099;28;20462;-63
2021/08/28 05:19:57;;;;;;;23.30;19.60;;;13.60;99.90;;;;;;5051848;28;20962;-63
2021/08/28 05:22:24;;;;;;;23.13;18.97;;;13.70;99.90;;;;;;5052944;28;20544;-63
2021/08/28 05:24:51;;;;;;;24.00;18.50;;;13.70;99.90;;;;;;5052166;28;20444;-63
2021/08/28 05:27:19;;;;;;;24.73;17.70;;;13.80;99.90;;;;;;5052663;28;20476;-63
2021/08/28 05:29:46;;;;;;;26.43;17.90;;;13.80;99.90;;;;;;5051700;28;21018;-63
2021/08/28 05:32:13;;;;;;;24.03;18.33;;;13.80;99.90;;;;;;5052172;28;20463;-63
2021/08/28 05:34:40;;;;;;;20.60;17.87;;;13.80;99.90;;;;;;5052254;28;20531;-63
2021/08/28 05:37:07;;;;;;;23.97;19.10;;;13.80;99.90;;;;;;5052181;28;20531;-64
2021/08/28 05:39:35;;;;;;;23.63;19.33;;;13.80;99.90;;;;;;5051553;28;20499;-63
2021/08/28 05:42:02;;;;;;;20.67;17.00;;;13.90;99.90;;;;;;5052449;28;20550;-63
2021/08/28 05:44:30;;;;;;;27.10;21.73;;;13.90;99.90;;;;;;5052081;28;20559;-63
2021/08/28 05:46:57;;;;;;;25.20;19.50;;;14.00;99.90;;;;;;5052242;28;20443;-63
2021/08/28 05:49:24;;;;;;;23.40;18.67;;;14.00;99.90;;;;;;5050747;28;20484;-62
2021/08/28 05:51:51;;;;;;;21.83;18.10;;;14.10;99.90;;;;;;5051784;28;20466;-63
2021/08/28 05:54:18;;;;;;;21.00;17.70;;;14.10;99.90;;;;;;5052208;28;20471;-63
2021/08/28 05:56:45;;;;;;;22.70;18.50;;;14.10;99.90;;;;;;5051753;28;20442;-64
2021/08/28 05:59:12;;;;;;;21.07;17.20;;;14.10;99.90;;;;;;5051042;28;20459;-65
2021/08/28 06:01:40;;;;;;;20.43;17.40;;;14.20;99.90;;;;;;5059073;28;20550;-63
2021/08/28 06:04:07;;;;;;;22.73;18.00;;;14.30;99.90;;;;;;5071750;28;20542;-64
2021/08/28 06:06:34;;;;;;;18.77;16.87;;;14.40;99.90;;;;;;5070993;28;20522;-66
2021/08/28 06:09:01;;;;;;;20.10;18.00;;;14.50;99.90;;;;;;5071446;28;20961;-65
2021/08/28 06:11:28;;;;;;;24.03;17.43;;;14.60;99.90;;;;;;5071636;28;20550;-65
2021/08/28 06:13:55;;;;;;;21.40;18.30;;;14.60;99.90;;;;;;5072241;28;20449;-66
2021/08/28 06:16:23;;;;;;;21.90;17.13;;;14.70;99.90;;;;;;5065029;28;20551;-69
2021/08/28 06:18:51;;;;;;;20.23;16.60;;;14.70;99.90;;;;;;5065502;28;20455;-69
2021/08/28 06:21:19;;;;;;;20.10;16.30;;;14.80;99.90;;;;;;5058721;28;20490;-65
2021/08/28 06:23:46;;;;;;;16.73;14.93;;;15.00;99.90;;;;;;5072538;28;20459;-66
2021/08/28 06:26:13;;;;;;;19.13;17.10;;;15.30;99.90;;;;;;5074235;28;20475;-66
2021/08/28 06:28:40;;;;;;;16.37;14.43;;;15.40;99.90;;;;;;5074236;28;20562;-66
2021/08/28 06:31:07;;;;;;;19.60;16.23;;;15.50;99.90;;;;;;5073366;28;20500;-66
2021/08/28 06:33:34;;;;;;;17.40;14.40;;;15.60;99.90;;;;;;5072152;28;20570;-65
2021/08/28 06:36:02;;;;;;;16.83;15.23;;;15.60;99.90;;;;;;5071277;28;20542;-66
2021/08/28 06:38:31;;;;;;;17.37;15.70;;;15.70;99.90;;;;;;5071473;28;20466;-65
2021/08/28 06:40:58;;;;;;;17.73;15.90;;;15.50;99.90;;;;;;5068434;28;20777;-65
2021/08/28 06:43:26;;;;;;;14.77;13.27;;;15.50;99.90;;;;;;5069492;28;20463;-65
2021/08/28 06:45:53;;;;;;;13.67;12.20;;;15.50;99.90;;;;;;5069417;28;20451;-66
2021/08/28 06:48:19;;;;;;;15.47;13.87;;;15.30;99.90;;;;;;5069088;28;20582;-65
2021/08/28 06:50:47;;;;;;;13.20;11.90;;;15.30;99.90;;;;;;5069687;28;20443;-65
2021/08/28 06:53:16;;;;;;;14.30;12.47;;;15.20;99.90;;;;;;5070803;28;21127;-66
2021/08/28 06:55:43;;;;;;;13.13;11.83;;;15.10;99.90;;;;;;5070107;28;20526;-65
2021/08/28 06:58:10;;;;;;;15.07;13.50;;;15.00;99.90;;;;;;5070444;28;20546;-66
2021/08/28 07:00:37;;;;;;;14.30;12.80;;;15.00;99.90;;;;;;5069011;28;20443;-65
2021/08/28 07:03:04;;;;;;;15.27;13.67;;;15.00;99.90;;;;;;5070762;28;21139;-66
2021/08/28 07:05:31;;;;;;;15.30;12.87;;;15.00;99.90;;;;;;5070382;28;20471;-64
2021/08/28 07:07:58;;;;;;;13.63;12.23;;;15.10;99.90;;;;;;5070219;28;20474;-65
2021/08/28 07:10:26;;;;;;;13.90;12.10;;;15.00;99.90;;;;;;5069855;28;20453;-66
2021/08/28 07:12:53;;;;;;;14.70;11.07;;;15.00;99.90;;;;;;5070308;28;20463;-65
2021/08/28 07:15:20;;;;;;;14.33;11.47;;;15.00;99.90;;;;;;5069637;28;20475;-65
2021/08/28 07:17:47;;;;;;;13.50;11.90;;;15.00;99.90;;;;;;5070428;28;20527;-66
2021/08/28 07:20:15;;;;;;;12.13;10.93;;;14.90;99.90;;;;;;5069398;28;20525;-65
2021/08/28 07:22:42;;;;;;;11.50;10.37;;;14.90;99.90;;;;;;5067434;28;20563;-66
2021/08/28 07:25:10;;;;;;;12.43;10.90;;;14.80;99.90;;;;;;5069000;28;20944;-66
2021/08/28 07:27:39;;;;;;;13.87;11.50;;;14.80;99.90;;;;;;5069667;28;20971;-65
2021/08/28 07:30:07;;;;;;;12.60;11.23;;;14.80;99.90;;;;;;5065074;28;21032;-65
2021/08/28 07:32:34;;;;;;;12.87;11.60;;;14.80;99.90;;;;;;5069626;28;20538;-64
2021/08/28 07:35:01;;;;;;;15.73;12.23;;;14.90;99.90;;;;;;5069450;28;20527;-66
2021/08/28 07:37:28;;;;;;;14.43;12.07;;;15.00;99.90;;;;;;5069752;28;20496;-66
2021/08/28 07:39:54;;;;;;;12.03;10.77;;;15.10;99.90;;;;;;5069018;28;20453;-66
2021/08/28 07:42:21;;;;;;;13.50;11.07;;;15.20;99.90;;;;;;5069779;28;20459;-65
2021/08/28 07:44:50;;;;;;;16.20;11.03;;;15.30;99.90;;;;;;5069779;28;20526;-65
2021/08/28 07:47:17;;;;;;;11.30;10.10;;;15.40;99.90;;;;;;5069609;28;20530;-66
2021/08/28 07:49:44;;;;;;;11.20;9.13;;;15.50;99.90;;;;;;5068788;28;20475;-66
2021/08/28 07:52:11;;;;;;;9.93;7.70;;;15.50;99.90;;;;;;5069668;28;20568;-66
2021/08/28 07:54:38;;;;;;;7.50;5.97;;;15.50;99.90;;;;;;5068869;28;21012;-66
2021/08/28 07:57:05;;;;;;;6.27;5.67;;;15.50;99.90;;;;;;5069583;28;20534;-66
2021/08/28 07:59:32;;;;;;;8.00;5.70;;;15.70;99.90;;;;;;5068513;28;20551;-65
2021/08/28 08:02:00;;;;;;;6.10;5.50;;;16.00;99.90;;;;;;5067513;28;20513;-66
2021/08/28 08:04:27;;;;;;;7.07;6.37;;;16.30;99.90;;;;;;5069027;28;20638;-65
2021/08/28 08:06:55;;;;;;;7.10;5.70;;;16.60;99.90;;;;;;5066119;28;20444;-66
2021/08/28 08:09:22;;;;;;;6.30;5.70;;;16.70;99.90;;;;;;5068353;28;20481;-65
2021/08/28 08:11:49;;;;;;;5.10;4.60;;;16.80;99.90;;;;;;5067084;28;20542;-66
2021/08/28 08:14:16;;;;;;;6.20;4.50;;;16.80;99.90;;;;;;5069371;28;20540;-66
2021/08/28 08:16:43;;;;;;;8.07;5.07;;;16.70;99.90;;;;;;5067730;28;20478;-65
2021/08/28 08:19:12;;;;;;;5.00;4.40;;;16.60;99.90;;;;;;5068498;28;20550;-65
2021/08/28 08:21:39;;;;;;;5.40;4.90;;;16.50;99.90;;;;;;5068641;28;20467;-66
2021/08/28 08:24:07;;;;;;;4.80;4.30;;;16.40;99.90;;;;;;5069283;28;20534;-66
2021/08/28 08:26:33;;;;;;;5.00;4.30;;;16.30;99.90;;;;;;5068969;28;20450;-66
2021/08/28 08:29:00;;;;;;;5.50;4.30;;;16.30;99.90;;;;;;5068764;28;20470;-67
2021/08/28 08:31:27;;;;;;;5.63;5.13;;;16.40;99.90;;;;;;5067956;28;20541;-65
2021/08/28 08:33:54;;;;;;;4.90;4.43;;;16.50;99.90;;;;;;5066044;28;20466;-66
2021/08/28 08:36:22;;;;;;;6.20;4.57;;;16.70;99.90;;;;;;5068930;28;20502;-66
2021/08/28 08:38:49;;;;;;;7.13;6.10;;;16.80;99.90;;;;;;5068800;28;20523;-65
2021/08/28 08:41:18;;;;;;;5.03;4.53;;;16.70;99.90;;;;;;5068669;28;20526;-66
2021/08/28 08:43:47;;;;;;;5.20;4.27;;;16.50;99.90;;;;;;5069277;28;20457;-65
2021/08/28 08:46:15;;;;;;;5.53;4.00;;;16.20;99.90;;;;;;5066824;28;20512;-66
2021/08/28 08:48:42;;;;;;;4.60;3.93;;;16.10;99.90;;;;;;5068828;28;20473;-66
2021/08/28 08:51:10;;;;;;;6.93;4.60;;;16.00;99.90;;;;;;5066366;28;20534;-66
2021/08/28 08:53:39;;;;;;;5.00;4.50;;;16.10;99.90;;;;;;5069267;28;20558;-66
2021/08/28 08:56:06;;;;;;;4.90;4.07;;;16.20;99.90;;;;;;5069002;28;20494;-67
2021/08/28 08:58:33;;;;;;;5.47;4.97;;;16.40;99.90;;;;;;5069502;28;20469;-66
2021/08/28 09:01:03;;;;;;;6.40;4.57;;;16.60;99.90;;;;;;5068586;28;20443;-65
2021/08/28 09:03:30;;;;;;;5.23;3.70;;;16.60;99.90;;;;;;5069674;28;20563;-65
2021/08/28 09:05:56;;;;;;;4.83;3.90;;;16.60;99.90;;;;;;5068973;28;20534;-66
2021/08/28 09:08:26;;;;;;;4.20;3.40;;;16.60;99.90;;;;;;5069284;28;20573;-66
2021/08/28 09:10:54;;;;;;;4.40;3.97;;;16.70;99.90;;;;;;5068357;28;20629;-66
2021/08/28 09:13:24;;;;;;;3.73;3.00;;;16.70;99.90;;;;;;5069064;28;20473;-66
2021/08/28 09:15:54;;;;;;;4.90;3.80;;;16.60;99.90;;;;;;5068402;28;20501;-66
2021/08/28 09:18:21;;;;;;;6.30;3.60;;;16.50;99.90;;;;;;5068924;28;20944;-66
2021/08/28 09:20:48;;;;;;;5.30;3.40;;;16.40;99.90;;;;;;5068242;28;20545;-66
2021/08/28 09:23:17;;;;;;;5.07;4.10;;;16.40;99.90;;;;;;5070451;28;20458;-66
2021/08/28 09:25:48;;;;;;;4.40;3.70;;;16.40;99.90;;;;;;5071965;28;20450;-67
2021/08/28 09:28:17;;;;;;;5.00;3.20;;;16.40;99.90;;;;;;5072599;28;20500;-66
2021/08/28 09:30:46;;;;;;;6.07;4.03;;;16.40;99.90;;;;;;5071868;28;20462;-66
2021/08/28 09:33:14;;;;;;;4.20;3.40;;;16.30;99.90;;;;;;5072547;28;20470;-67
2021/08/28 09:35:43;;;;;;;4.50;3.50;;;16.30;99.90;;;;;;5071844;28;20526;-66
2021/08/28 09:38:12;;;;;;;5.47;3.73;;;16.30;99.90;;;;;;5072563;28;20988;-66
2021/08/28 09:40:40;;;;;;;4.23;3.70;;;16.20;99.90;;;;;;5071420;28;20441;-66
2021/08/28 09:43:12;;;;;;;4.47;3.53;;;16.10;99.90;;;;;;5072375;28;20550;-66
2021/08/28 09:45:41;;;;;;;4.37;3.53;;;15.90;99.90;;;;;;5071936;28;20439;-66
2021/08/28 09:48:09;;;;;;;5.37;4.50;;;15.80;99.90;;;;;;5072244;28;20543;-66
2021/08/28 09:50:39;;;;;;;4.57;3.10;;;15.80;99.90;;;;;;5071105;28;20985;-66
2021/08/28 09:53:08;;;;;;;4.07;3.57;;;15.70;99.90;;;;;;5071839;28;20463;-66
2021/08/28 09:55:37;;;;;;;4.80;3.90;;;15.60;99.90;;;;;;5072290;28;20518;-66
2021/08/28 09:58:04;;;;;;;3.60;3.30;;;15.50;99.90;;;;;;5071856;28;20699;-66
2021/08/28 10:00:33;;;;;;;4.40;3.33;;;15.40;99.90;;;;;;5071308;28;20438;-66
2021/08/28 10:03:04;;;;;;;3.67;3.20;;;15.30;99.90;;;;;;5071728;28;21091;-66
2021/08/28 10:05:32;;;;;;;4.67;3.50;;;15.20;99.90;;;;;;5071537;28;20442;-66
2021/08/28 10:08:00;;;;;;;4.97;3.60;;;15.10;99.90;;;;;;5071666;28;20478;-67
2021/08/28 10:10:30;;;;;;;4.30;3.70;;;15.00;99.90;;;;;;5071418;28;20566;-66
2021/08/28 10:12:57;;;;;;;5.17;3.40;;;15.00;99.90;;;;;;5071950;28;20485;-66
2021/08/28 10:15:25;;;;;;;4.43;4.03;;;14.90;99.90;;;;;;5071156;28;21027;-66
2021/08/28 10:17:53;;;;;;;4.53;4.13;;;14.80;99.90;;;;;;5071551;28;20450;-66
2021/08/28 10:20:21;;;;;;;5.23;4.23;;;14.70;99.90;;;;;;5070466;28;20450;-66
2021/08/28 10:22:52;;;;;;;4.70;3.97;;;14.70;99.90;;;;;;5071224;28;21045;-65
2021/08/28 10:25:22;;;;;;;5.10;3.63;;;14.70;99.90;;;;;;5071139;28;20446;-66
2021/08/28 10:27:50;;;;;;;4.70;3.63;;;14.70;99.90;;;;;;5071510;28;20566;-66
2021/08/28 10:30:19;;;;;;;4.63;4.17;;;14.70;99.90;;;;;;5070322;28;20995;-66
2021/08/28 10:32:47;;;;;;;4.03;3.60;;;14.70;99.90;;;;;;5071130;28;20546;-66
2021/08/28 10:35:16;;;;;;;4.80;4.27;;;14.90;99.90;;;;;;5070949;28;20538;-66
2021/08/28 10:37:45;;;;;;;4.87;4.40;;;15.00;99.90;;;;;;5071459;28;20525;-66
2021/08/28 10:40:15;;;;;;;4.30;3.80;;;15.30;99.90;;;;;;5070502;28;20501;-66
2021/08/28 10:42:43;;;;;;;4.87;4.00;;;15.50;99.90;;;;;;5070886;28;20505;-67
2021/08/28 10:45:11;;;;;;;4.83;3.70;;;15.60;99.90;;;;;;5070585;28;20522;-67
2021/08/28 10:47:39;;;;;;;3.80;3.23;;;15.70;99.90;;;;;;5071008;28;20543;-66
2021/08/28 10:50:08;;;;;;;4.63;3.77;;;15.80;99.90;;;;;;5070043;28;20569;-66
2021/08/28 10:52:36;;;;;;;3.60;3.13;;;15.80;99.90;;;;;;5070811;28;20723;-66
2021/08/28 10:55:09;;;;;;;4.87;3.97;;;15.90;99.90;;;;;;5070247;28;20542;-66
2021/08/28 10:57:36;;;;;;;4.90;3.63;;;16.20;99.90;;;;;;5070600;28;20459;-66
2021/08/28 11:00:07;;;;;;;3.43;2.53;;;16.80;99.90;;;;;;5069938;28;20449;-66
2021/08/28 11:02:55;;;;;;;4.20;2.40;;;17.60;99.90;;;;;;5071062;28;20860;-67
2021/08/28 11:05:23;;;;;;;3.93;2.37;;;18.60;99.90;;;;;;5070888;28;20969;-67
2021/08/28 11:07:50;;;;;;;3.13;2.00;;;19.50;99.90;;;;;;5071168;28;20487;-66
2021/08/28 11:10:21;;;;;;;3.37;1.90;;;20.20;99.90;;;;;;5069947;28;20573;-67
2021/08/28 11:13:00;;;;;;;2.50;1.70;;;20.10;99.90;;;;;;5071196;28;20493;-69
2021/08/28 11:15:54;;;;;;;3.17;2.00;;;20.50;99.90;;;;;;5070071;28;20435;-67
2021/08/28 11:18:46;;;;;;;3.63;1.90;;;20.80;99.90;;;;;;5070758;28;20420;-65
2021/08/28 11:21:14;;;;;;;3.73;1.90;;;21.20;99.90;;;;;;5069547;28;20522;-64
2021/08/28 11:23:47;;;;;;;2.40;1.40;;;21.40;99.90;;;;;;5069986;28;20989;-64
2021/08/28 11:26:33;;;;;;;2.83;1.67;;;21.40;99.90;;;;;;5069729;28;20443;-64
2021/08/28 11:29:01;;;;;;;2.10;1.27;;;21.30;99.90;;;;;;5069367;28;20423;-64
2021/08/28 11:31:45;;;;;;;2.10;1.00;;;21.60;99.90;;;;;;5069637;28;20450;-65
2021/08/28 11:34:13;;;;;;;2.00;1.10;;;21.60;99.90;;;;;;5069453;28;20793;-63
2021/08/28 11:36:40;;;;;;;2.77;1.60;;;20.80;99.90;;;;;;5069650;28;20486;-64
2021/08/28 11:39:22;;;;;;;2.50;1.53;;;20.50;99.90;;;;;;5068743;28;20466;-64
2021/08/28 11:41:51;;;;;;;2.83;1.20;;;20.20;99.90;;;;;;5069972;28;20515;-64
2021/08/28 11:44:18;;;;;;;2.60;1.50;;;20.10;99.90;;;;;;5069093;28;20966;-64
2021/08/28 11:46:47;;;;;;;2.10;1.10;;;20.10;99.90;;;;;;5069797;28;20549;-64
2021/08/28 11:49:15;;;;;;;2.60;1.30;;;19.90;99.90;;;;;;5068623;28;20482;-64
2021/08/28 11:51:42;;;;;;;2.43;1.40;;;19.70;99.90;;;;;;5069707;28;20463;-63
2021/08/28 11:54:12;;;;;;;3.30;1.33;;;19.70;99.90;;;;;;5069620;28;20960;-65
2021/08/28 11:56:39;;;;;;;2.30;1.23;;;20.10;99.90;;;;;;5069630;28;20520;-65
2021/08/28 11:59:08;;;;;;;2.53;1.10;;;20.20;99.90;;;;;;5068895;28;20501;-65
2021/08/28 12:01:38;;;;;;;2.10;1.10;;;20.20;99.90;;;;;;5069214;28;20461;-64
2021/08/28 12:04:07;;;;;;;2.10;1.00;;;20.70;99.90;;;;;;5069510;28;20447;-64
2021/08/28 12:06:36;;;;;;;2.87;1.50;;;21.10;99.90;;;;;;5068695;28;20536;-64
2021/08/28 12:09:05;;;;;;;1.90;1.00;;;21.40;99.90;;;;;;5068931;28;20553;-65
2021/08/28 12:11:32;;;;;;;2.27;1.03;;;22.20;99.90;;;;;;5069288;28;20537;-64
2021/08/28 12:14:02;;;;;;;2.50;1.30;;;23.20;99.90;;;;;;5069485;28;20557;-64
2021/08/28 12:16:32;;;;;;;2.00;1.00;;;24.00;99.90;;;;;;5069275;28;20459;-64
2021/08/28 12:19:01;;;;;;;2.10;1.10;;;24.50;99.90;;;;;;5068355;28;20451;-63
2021/08/28 12:21:29;;;;;;;2.10;1.10;;;24.50;99.90;;;;;;5069368;28;20512;-65
2021/08/28 12:23:56;;;;;;;2.20;1.03;;;24.70;99.90;;;;;;5069403;28;20443;-65
2021/08/28 12:26:23;;;;;;;2.17;0.90;;;25.60;99.20;;;;;;5069252;28;20479;-65
2021/08/28 12:28:53;;;;;;;2.50;1.20;;;26.00;97.30;;;;;;5069512;28;20439;-65
2021/08/28 12:31:20;;;;;;;2.70;1.40;;;26.40;96.50;;;;;;5068724;28;20570;-64
2021/08/28 12:33:49;;;;;;;3.47;1.00;;;26.60;95.20;;;;;;5069501;28;20485;-64
2021/08/28 12:36:29;;;;;;;2.57;1.20;;;26.10;94.00;;;;;;5069078;28;20508;-64
2021/08/28 12:39:05;;;;;;;1.90;0.80;;;24.40;95.00;;;;;;5069569;28;20442;-64
2021/08/28 12:41:33;;;;;;;2.50;1.00;;;24.00;97.80;;;;;;5069423;28;20538;-64
2021/08/28 12:44:00;;;;;;;3.57;2.30;;;23.80;98.60;;;;;;5069132;28;20447;-65